createdAt,value
2023-01-22T00:02:02.149Z,6.55
2023-01-22T00:04:28.765Z,9.95
2023-01-22T00:06:55.488Z,7.88
2023-01-22T00:09:23.470Z,12.18
2023-01-22T00:11:50.243Z,7.80
2023-01-22T00:14:17.480Z,8.88
2023-01-22T00:16:44.237Z,8.50
2023-01-22T00:19:11.127Z,5.65
2023-01-22T00:21:37.935Z,6.93
2023-01-22T00:24:04.903Z,7.85
2023-01-22T00:26:32.850Z,6.35
2023-01-22T00:28:59.504Z,7.90
2023-01-22T00:31:26.244Z,4.50
2023-01-22T00:33:52.949Z,6.85
2023-01-22T00:36:21.189Z,7.40
2023-01-22T00:38:48.479Z,7.43
2023-01-22T00:41:15.989Z,9.55
2023-01-22T00:43:44.096Z,4.18
2023-01-22T00:46:13.453Z,7.50
2023-01-22T00:48:40.207Z,9.30
2023-01-22T00:51:07.535Z,7.97
2023-01-22T00:53:34.300Z,8.05
2023-01-22T00:56:02.158Z,8.02
2023-01-22T00:58:29.562Z,9.23
2023-01-22T01:00:57.611Z,8.50
2023-01-22T01:03:24.264Z,6.78
2023-01-22T01:05:50.843Z,10.35
2023-01-22T01:08:17.424Z,8.68
2023-01-22T01:10:44.075Z,7.30
2023-01-22T01:13:11.446Z,6.65
2023-01-22T01:15:38.209Z,9.93
2023-01-22T01:18:06.238Z,10.35
2023-01-22T01:20:32.858Z,9.60
2023-01-22T01:22:59.415Z,7.93
2023-01-22T01:25:26.039Z,11.40
2023-01-22T01:27:52.726Z,12.40
2023-01-22T01:30:20.070Z,14.23
2023-01-22T01:32:46.894Z,11.48
2023-01-22T01:35:14.959Z,9.40
2023-01-22T01:37:41.580Z,10.15
2023-01-22T01:40:09.451Z,12.45
2023-01-22T01:42:39.624Z,13.60
2023-01-22T01:45:25.961Z,14.05
2023-01-22T01:47:56.412Z,10.55
2023-01-22T01:50:27.191Z,11.90
2023-01-22T01:52:54.402Z,6.63
2023-01-22T01:55:26.860Z,7.95
2023-01-22T01:57:56.415Z,8.35
2023-01-22T02:00:26.605Z,5.97
2023-01-22T02:02:53.699Z,5.68
2023-01-22T02:05:21.227Z,10.82
2023-01-22T02:07:49.348Z,6.80
2023-01-22T02:10:16.427Z,9.27
2023-01-22T02:12:43.366Z,6.82
2023-01-22T02:15:10.626Z,8.45
2023-01-22T02:17:37.274Z,5.90
2023-01-22T02:20:04.402Z,7.10
2023-01-22T02:22:35.497Z,8.55
2023-01-22T02:25:02.175Z,8.52
2023-01-22T02:27:28.817Z,8.85
2023-01-22T02:29:55.413Z,5.85
2023-01-22T02:32:22.111Z,10.35
2023-01-22T02:34:48.749Z,7.90
2023-01-22T02:37:15.446Z,8.50
2023-01-22T02:39:43.443Z,5.80
2023-01-22T02:42:10.234Z,8.85
2023-01-22T02:44:36.849Z,6.20
2023-01-22T02:47:04.061Z,6.43
2023-01-22T02:49:30.876Z,5.95
2023-01-22T02:51:57.581Z,7.43
2023-01-22T02:54:24.447Z,7.55
2023-01-22T02:56:52.570Z,8.60
2023-01-22T02:59:19.211Z,6.05
2023-01-22T03:01:45.811Z,4.63
2023-01-22T03:04:12.457Z,5.35
2023-01-22T03:06:41.840Z,7.05
2023-01-22T03:09:09.492Z,5.90
2023-01-22T03:11:37.484Z,5.40
2023-01-22T03:14:06.408Z,4.20
2023-01-22T03:16:33.638Z,6.18
2023-01-22T03:19:02.833Z,4.72
2023-01-22T03:21:29.415Z,4.00
2023-01-22T03:23:56.064Z,5.45
2023-01-22T03:26:23.831Z,4.93
2023-01-22T03:28:51.161Z,3.60
2023-01-22T03:31:19.481Z,5.18
2023-01-22T03:33:46.570Z,4.90
2023-01-22T03:36:14.631Z,6.75
2023-01-22T03:38:41.741Z,3.95
2023-01-22T03:41:11.985Z,5.32
2023-01-22T03:43:39.575Z,4.45
2023-01-22T03:46:09.405Z,4.85
2023-01-22T03:48:38.029Z,6.80
2023-01-22T03:51:07.000Z,5.25
2023-01-22T03:53:34.161Z,7.15
2023-01-22T03:56:03.929Z,5.80
2023-01-22T03:58:31.080Z,5.32
2023-01-22T04:01:00.908Z,7.45
2023-01-22T04:03:28.492Z,5.55
2023-01-22T04:05:56.953Z,5.88
2023-01-22T04:08:23.638Z,5.60
2023-01-22T04:10:50.295Z,6.97
2023-01-22T04:13:16.892Z,5.85
2023-01-22T04:15:44.239Z,5.85
2023-01-22T04:18:10.836Z,7.03
2023-01-22T04:20:37.617Z,5.15
2023-01-22T04:23:06.049Z,7.45
2023-01-22T04:25:32.875Z,9.65
2023-01-22T04:27:59.470Z,6.57
2023-01-22T04:30:26.196Z,5.72
2023-01-22T04:32:52.822Z,6.25
2023-01-22T04:35:19.795Z,6.05
2023-01-22T04:37:46.461Z,6.05
2023-01-22T04:40:14.891Z,6.45
2023-01-22T04:42:41.509Z,7.82
2023-01-22T04:45:09.414Z,6.05
2023-01-22T04:47:40.518Z,7.03
2023-01-22T04:50:08.101Z,4.95
2023-01-22T04:52:34.717Z,5.30
2023-01-22T04:55:01.314Z,6.05
2023-01-22T04:57:29.281Z,5.43
2023-01-22T04:59:55.931Z,6.70
2023-01-22T05:02:22.570Z,5.55
2023-01-22T05:04:49.494Z,6.95
2023-01-22T05:07:16.140Z,5.85
2023-01-22T05:09:42.774Z,5.57
2023-01-22T05:12:09.310Z,5.22
2023-01-22T05:14:37.302Z,5.15
2023-01-22T05:17:03.927Z,4.95
2023-01-22T05:19:30.557Z,6.40
2023-01-22T05:21:57.133Z,6.00
2023-01-22T05:24:23.881Z,5.32
2023-01-22T05:26:50.471Z,3.45
2023-01-22T05:29:17.231Z,6.22
2023-01-22T05:31:45.340Z,8.50
2023-01-22T05:34:12.049Z,5.88
2023-01-22T05:36:38.623Z,4.57
2023-01-22T05:39:05.219Z,5.38
2023-01-22T05:41:31.878Z,5.03
2023-01-22T05:43:58.463Z,5.38
2023-01-22T05:46:25.366Z,8.13
2023-01-22T05:48:53.356Z,5.80
2023-01-22T05:51:20.111Z,6.97
2023-01-22T05:53:46.688Z,4.90
2023-01-22T05:56:13.388Z,4.97
2023-01-22T05:58:40.278Z,5.65
2023-01-22T06:01:07.193Z,5.43
2023-01-22T06:03:33.888Z,5.28
2023-01-22T06:06:04.211Z,6.60
2023-01-22T06:08:32.334Z,5.75
2023-01-22T06:11:01.476Z,5.43
2023-01-22T06:13:28.426Z,5.35
2023-01-22T06:15:55.139Z,5.35
2023-01-22T06:18:22.492Z,6.60
2023-01-22T06:20:49.051Z,6.63
2023-01-22T06:23:17.137Z,9.02
2023-01-22T06:25:44.094Z,5.93
2023-01-22T06:28:11.076Z,7.20
2023-01-22T06:30:37.731Z,8.00
2023-01-22T06:33:04.419Z,6.57
2023-01-22T06:35:30.998Z,8.48
2023-01-22T06:37:57.667Z,10.20
2023-01-22T06:40:25.743Z,7.00
2023-01-22T06:42:52.459Z,5.80
2023-01-22T06:45:19.108Z,7.90
2023-01-22T06:47:46.647Z,6.40
2023-01-22T06:50:13.585Z,8.23
2023-01-22T06:52:40.267Z,7.78
2023-01-22T06:55:07.383Z,6.60
2023-01-22T06:57:35.347Z,8.32
2023-01-22T07:00:02.701Z,7.82
2023-01-22T07:02:29.299Z,7.25
2023-01-22T07:04:55.928Z,7.40
2023-01-22T07:07:22.878Z,5.75
2023-01-22T07:09:49.485Z,7.93
2023-01-22T07:12:16.223Z,8.07
2023-01-22T07:14:44.371Z,6.40
2023-01-22T07:17:10.964Z,7.32
2023-01-22T07:19:37.569Z,6.20
2023-01-22T07:22:04.213Z,9.35
2023-01-22T07:24:30.900Z,7.57
2023-01-22T07:26:57.643Z,7.78
2023-01-22T07:29:24.307Z,6.68
2023-01-22T07:31:52.387Z,8.68
2023-01-22T07:34:19.274Z,7.47
2023-01-22T07:36:46.158Z,8.82
2023-01-22T07:39:12.870Z,8.60
2023-01-22T07:41:39.448Z,7.82
2023-01-22T07:44:06.095Z,8.52
2023-01-22T07:46:34.032Z,7.07
2023-01-22T07:49:02.131Z,7.07
2023-01-22T07:51:28.767Z,7.28
2023-01-22T07:53:55.406Z,8.35
2023-01-22T07:56:22.034Z,7.32
2023-01-22T07:58:48.653Z,9.13
2023-01-22T08:01:15.923Z,8.63
2023-01-22T08:03:42.828Z,11.25
2023-01-22T08:06:12.225Z,8.25
2023-01-22T08:08:39.150Z,8.10
2023-01-22T08:11:05.830Z,8.80
2023-01-22T08:13:32.666Z,7.65
2023-01-22T08:15:59.576Z,7.57
2023-01-22T08:18:26.252Z,9.15
2023-01-22T08:20:52.996Z,11.05
2023-01-22T08:23:21.981Z,10.98
2023-01-22T08:25:48.917Z,9.30
2023-01-22T08:28:15.581Z,7.85
2023-01-22T08:30:46.348Z,10.82
2023-01-22T08:33:13.242Z,9.15
2023-01-22T08:35:39.952Z,9.52
2023-01-22T08:38:06.578Z,12.32
2023-01-22T08:40:37.131Z,9.43
2023-01-22T08:43:04.668Z,9.88
2023-01-22T08:45:31.342Z,9.32
2023-01-22T08:47:58.258Z,9.32
2023-01-22T08:50:25.115Z,9.52
2023-01-22T08:52:51.827Z,8.57
2023-01-22T08:55:18.509Z,9.95
2023-01-22T08:57:52.772Z,7.85
2023-01-22T09:00:20.181Z,11.65
2023-01-22T09:02:46.839Z,10.45
2023-01-22T09:05:13.506Z,9.52
2023-01-22T09:07:40.190Z,9.23
2023-01-22T09:10:08.032Z,9.52
2023-01-22T09:12:34.740Z,8.35
2023-01-22T09:15:03.107Z,10.02
2023-01-22T09:17:29.805Z,9.65
2023-01-22T09:19:56.424Z,10.63
2023-01-22T09:22:23.150Z,10.15
2023-01-22T09:24:49.784Z,10.93
2023-01-22T09:27:16.452Z,9.38
2023-01-22T09:29:43.098Z,11.45
2023-01-22T09:32:11.268Z,10.60
2023-01-22T09:34:37.909Z,12.48
2023-01-22T09:37:04.527Z,10.05
2023-01-22T09:39:31.076Z,12.70
2023-01-22T09:42:00.927Z,13.10
2023-01-22T09:44:34.040Z,12.52
2023-01-22T09:47:05.786Z,10.38
2023-01-22T09:49:38.440Z,10.20
2023-01-22T09:52:06.304Z,7.70
2023-01-22T09:54:33.673Z,11.95
2023-01-22T09:57:02.867Z,11.68
2023-01-22T09:59:35.664Z,11.00
2023-01-22T10:02:19.996Z,12.52
2023-01-22T10:04:52.108Z,10.15
2023-01-22T10:07:26.630Z,11.70
2023-01-22T10:09:55.656Z,12.05
2023-01-22T10:12:22.432Z,12.95
2023-01-22T10:14:51.110Z,9.25
2023-01-22T10:17:23.014Z,12.20
2023-01-22T10:19:55.593Z,9.70
2023-01-22T10:22:24.082Z,12.25
2023-01-22T10:24:52.119Z,11.45
2023-01-22T10:27:21.920Z,14.50
2023-01-22T10:29:58.422Z,12.25
2023-01-22T10:32:27.268Z,12.75
2023-01-22T10:35:03.831Z,11.38
2023-01-22T10:37:31.327Z,12.38
2023-01-22T10:39:59.396Z,11.40
2023-01-22T10:42:29.585Z,12.68
2023-01-22T10:44:58.068Z,11.98
2023-01-22T10:47:26.552Z,11.32
2023-01-22T10:50:06.306Z,12.43
2023-01-22T10:52:36.550Z,11.73
2023-01-22T10:55:04.137Z,14.43
2023-01-22T10:57:33.785Z,14.77
2023-01-22T11:00:07.718Z,12.65
2023-01-22T11:02:36.057Z,15.25
2023-01-22T11:05:17.902Z,12.25
2023-01-22T11:07:45.960Z,13.40
2023-01-22T11:10:21.444Z,16.83
2023-01-22T11:12:51.433Z,13.57
2023-01-22T11:15:24.545Z,18.27
2023-01-22T11:17:54.143Z,18.63
2023-01-22T11:20:25.849Z,17.27
2023-01-22T11:23:03.592Z,21.00
2023-01-22T11:25:41.238Z,19.05
2023-01-22T11:28:21.289Z,14.65
2023-01-22T11:31:01.934Z,17.05
2023-01-22T11:34:01.274Z,16.92
2023-01-22T11:36:36.411Z,16.08
2023-01-22T11:39:14.835Z,15.93
2023-01-22T11:41:58.560Z,14.55
2023-01-22T11:47:46.650Z,16.73
2023-01-22T11:50:23.357Z,15.25
2023-01-22T11:52:59.934Z,16.40
2023-01-22T11:55:50.604Z,15.70
2023-01-22T11:58:27.535Z,15.40
2023-01-22T12:01:02.763Z,16.80
2023-01-22T12:03:53.939Z,16.50
2023-01-22T12:06:41.893Z,14.60
2023-01-22T12:09:15.627Z,13.35
2023-01-22T12:12:04.082Z,14.10
2023-01-22T12:14:51.624Z,13.80
2023-01-22T12:17:41.428Z,14.63
2023-01-22T12:20:38.539Z,17.88
2023-01-22T12:23:08.809Z,12.38
2023-01-22T12:25:45.096Z,18.70
2023-01-22T12:28:16.930Z,14.10
2023-01-22T12:30:54.125Z,12.27
2023-01-22T12:33:25.783Z,14.77
2023-01-22T12:35:55.329Z,15.35
2023-01-22T12:38:35.442Z,16.52
2023-01-22T12:41:40.699Z,14.85
2023-01-22T12:46:54.090Z,15.95
2023-01-22T12:49:20.912Z,14.80
2023-01-22T12:51:49.533Z,12.82
2023-01-22T12:54:31.282Z,15.43
2023-01-22T12:57:12.444Z,14.07
2023-01-22T12:59:46.021Z,13.82
2023-01-22T13:02:31.299Z,13.65
2023-01-22T13:05:11.800Z,12.73
2023-01-22T13:07:39.945Z,16.15
2023-01-22T13:10:23.054Z,14.73
2023-01-22T13:12:52.952Z,12.25
2023-01-22T13:15:22.268Z,13.30
2023-01-22T13:18:06.173Z,14.77
2023-01-22T13:20:36.162Z,16.60
2023-01-22T13:23:06.499Z,14.30
2023-01-22T13:25:34.247Z,14.45
2023-01-22T13:28:02.630Z,15.77
2023-01-22T13:30:30.955Z,15.32
2023-01-22T13:33:06.124Z,13.30
2023-01-22T13:35:35.862Z,14.55
2023-01-22T13:38:02.787Z,14.25
2023-01-22T13:40:37.143Z,16.25
2023-01-22T13:43:15.888Z,16.20
2023-01-22T13:45:42.739Z,16.17
2023-01-22T13:48:15.762Z,18.60
2023-01-22T13:50:47.057Z,16.80
2023-01-22T13:53:25.464Z,17.85
2023-01-22T13:55:52.704Z,18.23
2023-01-22T13:58:47.244Z,15.85
2023-01-22T14:01:28.256Z,18.85
2023-01-22T14:03:59.272Z,19.45
2023-01-22T14:06:26.333Z,17.92
2023-01-22T14:08:55.304Z,18.30
2023-01-22T14:11:22.692Z,20.33
2023-01-22T14:13:52.637Z,19.02
2023-01-22T14:16:19.552Z,21.42
2023-01-22T14:18:46.986Z,20.75
2023-01-22T14:21:14.490Z,17.25
2023-01-22T14:23:41.376Z,20.15
2023-01-22T14:26:09.412Z,21.77
2023-01-22T14:28:36.869Z,19.55
2023-01-22T14:31:05.640Z,16.80
2023-01-22T14:33:34.188Z,22.05
2023-01-22T14:36:01.263Z,18.27
2023-01-22T14:38:28.520Z,19.52
2023-01-22T14:40:55.471Z,17.75
2023-01-22T14:43:22.632Z,17.70
2023-01-22T14:45:49.471Z,22.35
2023-01-22T14:48:19.941Z,22.52
2023-01-22T14:50:47.400Z,22.42
2023-01-22T14:53:15.204Z,18.90
2023-01-22T14:55:42.742Z,22.17
2023-01-22T14:58:09.773Z,27.25
2023-01-22T15:00:37.236Z,20.30
2023-01-22T15:03:04.398Z,22.67
2023-01-22T15:05:35.322Z,24.15
2023-01-22T15:08:02.654Z,161.65
2023-01-22T15:10:30.553Z,27.38
2023-01-22T15:12:57.432Z,28.27
2023-01-22T15:15:24.693Z,30.15
2023-01-22T15:17:51.991Z,26.88
2023-01-22T15:20:19.326Z,40.30
2023-01-22T15:22:48.021Z,24.70
2023-01-22T15:25:15.024Z,32.13
2023-01-22T15:27:41.760Z,27.45
2023-01-22T15:30:09.825Z,29.92
2023-01-22T15:32:36.537Z,24.65
2023-01-22T15:35:03.413Z,23.92
2023-01-22T15:37:30.253Z,25.60
2023-01-22T15:39:58.436Z,24.27
2023-01-22T15:42:25.382Z,29.75
2023-01-22T15:44:52.113Z,25.88
2023-01-22T15:47:18.870Z,29.75
2023-01-22T15:49:45.647Z,30.60
2023-01-22T15:52:12.321Z,27.58
2023-01-22T15:54:39.297Z,28.20
2023-01-22T15:57:07.393Z,36.30
2023-01-22T15:59:34.365Z,27.65
2023-01-22T16:02:01.305Z,28.33
2023-01-22T16:04:28.120Z,26.35
2023-01-22T16:06:54.844Z,25.08
2023-01-22T16:09:21.659Z,22.40
2023-01-22T16:11:48.443Z,25.83
2023-01-22T16:14:16.618Z,24.88
2023-01-22T16:16:43.373Z,28.58
2023-01-22T16:19:11.174Z,30.52
2023-01-22T16:21:38.030Z,31.67
2023-01-22T16:24:05.871Z,27.65
2023-01-22T16:26:34.877Z,33.55
2023-01-22T16:29:03.944Z,30.45
2023-01-22T16:31:34.303Z,28.42
2023-01-22T16:34:07.377Z,26.75
2023-01-22T16:36:34.755Z,26.58
2023-01-22T16:39:01.757Z,28.55
2023-01-22T16:41:29.975Z,29.50
2023-01-22T16:43:59.506Z,27.73
2023-01-22T16:46:27.895Z,34.05
2023-01-22T16:49:00.988Z,29.90
2023-01-22T16:51:33.181Z,29.20
2023-01-22T16:53:59.996Z,26.48
2023-01-22T16:56:26.738Z,24.90
2023-01-22T16:58:53.638Z,26.65
2023-01-22T17:01:20.786Z,23.50
2023-01-22T17:03:47.527Z,25.08
2023-01-22T17:06:23.554Z,25.13
2023-01-22T17:08:52.158Z,26.15
2023-01-22T17:11:19.182Z,25.27
2023-01-22T17:13:46.867Z,25.95
2023-01-22T17:16:14.845Z,29.23
2023-01-22T17:18:41.845Z,26.58
2023-01-22T17:21:11.223Z,31.15
2023-01-22T17:23:39.668Z,32.08
2023-01-22T17:26:07.579Z,26.77
2023-01-22T17:28:34.946Z,30.83
2023-01-22T17:31:05.115Z,33.58
2023-01-22T17:33:31.930Z,25.83
2023-01-22T17:35:58.784Z,31.13
2023-01-22T17:38:25.606Z,31.25
2023-01-22T17:40:53.783Z,32.38
2023-01-22T17:43:20.450Z,28.75
2023-01-22T17:45:47.126Z,35.38
2023-01-22T17:48:13.841Z,34.38
2023-01-22T17:50:40.708Z,33.00
2023-01-22T17:53:07.359Z,33.45
2023-01-22T17:55:34.113Z,26.00
2023-01-22T17:58:02.125Z,28.40
2023-01-22T18:00:28.835Z,27.92
2023-01-22T18:02:55.533Z,27.40
2023-01-22T18:05:22.220Z,31.70
2023-01-22T18:07:49.020Z,27.42
2023-01-22T18:10:16.218Z,29.38
2023-01-22T18:12:42.886Z,32.22
2023-01-22T18:15:11.781Z,27.48
2023-01-22T18:17:38.445Z,25.50
2023-01-22T18:20:06.053Z,28.38
2023-01-22T18:22:32.752Z,35.00
2023-01-22T18:24:59.356Z,33.92
2023-01-22T18:27:26.165Z,32.22
2023-01-22T18:29:52.841Z,29.88
2023-01-22T18:32:21.109Z,27.25
2023-01-22T18:34:47.803Z,27.02
2023-01-22T18:37:14.514Z,32.80
2023-01-22T18:39:41.155Z,29.05
2023-01-22T18:42:07.835Z,27.58
2023-01-22T18:44:34.534Z,31.55
2023-01-22T18:47:01.226Z,27.20
2023-01-22T18:49:29.296Z,24.75
2023-01-22T18:51:56.019Z,27.23
2023-01-22T18:54:22.663Z,26.35
2023-01-22T18:56:49.324Z,29.98
2023-01-22T18:59:15.992Z,31.42
2023-01-22T19:01:42.772Z,28.60
2023-01-22T19:04:10.269Z,30.48
2023-01-22T19:06:38.924Z,26.98
2023-01-22T19:09:08.182Z,29.02
2023-01-22T19:11:37.258Z,29.15
2023-01-22T19:14:04.758Z,28.70
2023-01-22T19:16:31.711Z,28.10
2023-01-22T19:19:00.376Z,29.63
2023-01-22T19:21:27.965Z,30.50
2023-01-22T19:23:59.191Z,23.40
2023-01-22T19:26:27.959Z,28.58
2023-01-22T19:28:57.269Z,32.45
2023-01-22T19:31:26.576Z,34.97
2023-01-22T19:33:54.980Z,45.10
2023-01-22T19:36:25.782Z,44.00
2023-01-22T19:38:52.501Z,41.20
2023-01-22T19:41:20.677Z,33.38
2023-01-22T19:43:47.504Z,39.47
2023-01-22T19:46:14.548Z,38.17
2023-01-22T19:48:41.482Z,36.60
2023-01-22T19:51:10.511Z,30.42
2023-01-22T19:53:37.820Z,30.67
2023-01-22T19:56:05.720Z,31.27
2023-01-22T19:58:33.857Z,28.45
2023-01-22T20:01:00.542Z,33.65
2023-01-22T20:03:27.216Z,28.33
2023-01-22T20:05:54.303Z,31.83
2023-01-22T20:08:20.841Z,33.47
2023-01-22T20:10:47.480Z,30.65
2023-01-22T20:13:14.111Z,31.98
2023-01-22T20:15:42.591Z,27.25
2023-01-22T20:18:09.903Z,29.80
2023-01-22T20:20:36.786Z,32.20
2023-01-22T20:23:04.061Z,27.63
2023-01-22T20:25:30.704Z,30.00
2023-01-22T20:27:57.532Z,29.25
2023-01-22T20:30:24.281Z,30.60
2023-01-22T20:32:52.369Z,27.92
2023-01-22T20:35:19.579Z,28.02
2023-01-22T20:37:46.327Z,32.22
2023-01-22T20:40:13.404Z,29.88
2023-01-22T20:42:40.028Z,28.42
2023-01-22T20:45:07.556Z,30.10
2023-01-22T20:47:34.953Z,32.85
2023-01-22T20:50:03.157Z,26.63
2023-01-22T20:52:29.798Z,30.92
2023-01-22T20:55:01.766Z,31.38
2023-01-22T20:57:29.188Z,27.55
2023-01-22T20:59:55.910Z,25.95
2023-01-22T21:02:23.130Z,32.10
2023-01-22T21:04:50.572Z,28.02
2023-01-22T21:07:18.585Z,30.83
2023-01-22T21:09:45.356Z,29.23
2023-01-22T21:12:12.228Z,28.88
2023-01-22T21:14:39.172Z,27.60
2023-01-22T21:17:05.781Z,28.48
2023-01-22T21:19:32.340Z,29.83
2023-01-22T21:21:58.928Z,30.90
2023-01-22T21:24:27.435Z,28.33
2023-01-22T21:26:54.383Z,27.10
2023-01-22T21:29:22.694Z,25.38
2023-01-22T21:31:51.104Z,24.92
2023-01-22T21:34:19.535Z,26.73
2023-01-22T21:36:47.841Z,27.08
2023-01-22T21:39:16.371Z,27.25
2023-01-22T21:41:44.956Z,23.50
2023-01-22T21:44:13.292Z,22.90
2023-01-22T21:46:42.619Z,25.85
2023-01-22T21:49:11.307Z,28.20
2023-01-22T21:51:37.899Z,24.83
2023-01-22T21:54:04.811Z,25.92
2023-01-22T21:56:31.921Z,24.02
2023-01-22T21:58:59.915Z,27.23
2023-01-22T22:01:26.497Z,25.88
2023-01-22T22:03:53.119Z,23.77
2023-01-22T22:06:19.759Z,22.85
2023-01-22T22:08:46.380Z,22.73
2023-01-22T22:11:13.599Z,23.75
2023-01-22T22:13:40.651Z,25.40
2023-01-22T22:16:09.933Z,23.88
2023-01-22T22:18:36.611Z,26.85
2023-01-22T22:21:06.269Z,24.08
2023-01-22T22:23:34.248Z,27.75
2023-01-22T22:26:01.235Z,26.80
2023-01-22T22:28:27.881Z,21.83
2023-01-22T22:31:02.193Z,24.73
2023-01-22T22:33:30.235Z,23.52
2023-01-22T22:35:57.023Z,24.27
2023-01-22T22:38:23.617Z,27.15
2023-01-22T22:40:58.267Z,27.23
2023-01-22T22:43:25.770Z,28.98
2023-01-22T22:45:52.457Z,25.77
2023-01-22T22:48:19.134Z,27.10
2023-01-22T22:50:47.096Z,30.02
2023-01-22T22:53:13.707Z,25.23
2023-01-22T22:55:40.546Z,27.00
2023-01-22T22:58:09.386Z,29.55
2023-01-22T23:00:36.089Z,27.15
2023-01-22T23:03:02.782Z,25.08
2023-01-22T23:05:29.378Z,24.77
2023-01-22T23:07:57.351Z,27.08
2023-01-22T23:10:23.953Z,27.08
2023-01-22T23:12:50.506Z,26.38
2023-01-22T23:15:17.069Z,26.17
2023-01-22T23:17:43.682Z,28.00
2023-01-22T23:20:12.055Z,27.13
2023-01-22T23:22:38.647Z,27.10
2023-01-22T23:25:07.232Z,27.88
2023-01-22T23:27:33.764Z,27.73
2023-01-22T23:30:00.440Z,28.10
2023-01-22T23:32:29.244Z,28.73
2023-01-22T23:34:55.890Z,27.15
2023-01-22T23:37:22.462Z,29.23
2023-01-22T23:39:49.076Z,23.00
2023-01-22T23:42:17.229Z,26.80
2023-01-22T23:44:44.057Z,26.63
2023-01-22T23:47:10.639Z,24.52
2023-01-22T23:49:37.981Z,30.55
2023-01-22T23:52:05.026Z,30.73
2023-01-22T23:54:31.674Z,27.70
2023-01-22T23:56:58.276Z,28.15
2023-01-22T23:59:26.220Z,25.33
